Terminal Aerodrome Forecast
Issued by NWS Louisville, KY

Home | Current Version | Previous Version | Text Only | Print | Product List | Glossary On
Versions: 1 2 3 4 5 6 7 8 9 10 11 12 13 14
991
FTUS43 KLMK 242320
TAFBWG
TAF
KBWG 242320Z 2500/2524 32004KT P6SM FEW050 SCT250
     FM250400 VRB03KT P6SM FEW250
     FM251600 30007KT P6SM SKC=

USA.gov is the U.S. government's official web portal to all federal, state and local government web resources and services.